Time;durP1;ratioP1;P1;durP2;ratioP2;P2;SDS_P1;SDS_P2;PMS_P1;PMS_P2;Temp;Humidity;BMP_temperature;BMP_pressure;BME280_temperature;BME280_humidity;BME280_pressure;Samples;Min_cycle;Max_cycle;Signal;HPM_P1;HPM_P2
2021/03/07 00:02:10;;;;;;;8.05;4.45;;;;;;;2.69;43.09;98074.66;5029450;28;20463;-79
2021/03/07 00:04:37;;;;;;;10.90;5.53;;;;;;;2.58;45.00;98075.03;5030167;28;20083;-78
2021/03/07 00:07:04;;;;;;;8.75;5.47;;;;;;;2.54;45.32;98069.44;5030875;28;20036;-79
2021/03/07 00:09:30;;;;;;;10.05;4.82;;;;;;;2.50;44.95;98054.53;5043950;28;20112;-78
2021/03/07 00:11:56;;;;;;;11.90;5.10;;;;;;;2.30;46.00;98057.53;5039595;28;20376;-78
2021/03/07 00:14:21;;;;;;;9.98;5.47;;;;;;;2.24;46.68;98063.34;5043106;28;20032;-78
2021/03/07 00:16:46;;;;;;;10.50;4.68;;;;;;;2.17;46.97;98063.22;5040427;28;20511;-77
2021/03/07 00:19:12;;;;;;;9.75;4.50;;;;;;;2.16;46.62;98068.50;5053778;28;20704;-78
2021/03/07 00:21:38;;;;;;;8.98;4.43;;;;;;;2.15;45.69;98062.59;5049392;28;20150;-78
2021/03/07 00:24:04;;;;;;;7.35;3.80;;;;;;;2.14;45.53;98052.47;5041838;28;20112;-78
2021/03/07 00:26:30;;;;;;;5.72;3.55;;;;;;;1.98;46.66;98058.50;5050661;28;20531;-78
2021/03/07 00:28:56;;;;;;;6.55;3.33;;;;;;;1.94;46.85;98052.09;5044487;28;20056;-78
2021/03/07 00:31:22;;;;;;;6.60;3.50;;;;;;;1.92;47.57;98054.84;5057187;28;20124;-78
2021/03/07 00:33:47;;;;;;;7.50;3.58;;;;;;;1.97;47.85;98042.28;5016277;28;20032;-78
2021/03/07 00:36:13;;;;;;;5.97;3.00;;;;;;;2.03;47.11;98046.75;5031758;28;20036;-78
2021/03/07 00:38:38;;;;;;;6.25;3.30;;;;;;;1.90;47.77;98038.78;5067056;28;20063;-78
2021/03/07 00:41:03;;;;;;;6.40;3.20;;;;;;;1.80;47.48;98039.00;5029999;28;20099;-78
2021/03/07 00:43:29;;;;;;;7.45;3.28;;;;;;;1.74;47.80;98044.00;5026832;28;20037;-79
2021/03/07 00:45:55;;;;;;;5.57;3.28;;;;;;;1.73;47.65;98029.53;5029706;28;20063;-78
2021/03/07 00:48:20;;;;;;;5.95;2.90;;;;;;;1.74;47.25;98028.59;5059593;28;20480;-79
2021/03/07 00:50:46;;;;;;;8.68;4.03;;;;;;;1.79;47.17;98034.81;5013510;28;20071;-79
2021/03/07 00:53:11;;;;;;;5.47;3.30;;;;;;;1.79;46.07;98029.69;5061020;28;20029;-79
2021/03/07 00:55:37;;;;;;;6.88;3.45;;;;;;;1.66;47.53;98031.97;5064886;28;20041;-78
2021/03/07 00:58:03;;;;;;;6.47;4.18;;;;;;;1.37;48.36;98010.25;5051523;28;20036;-78
2021/03/07 01:00:29;;;;;;;7.18;3.72;;;;;;;1.31;49.42;98019.41;5025215;28;20040;-78
2021/03/07 01:02:57;;;;;;;6.75;3.40;;;;;;;1.41;49.51;98018.44;5058415;28;20699;-78
2021/03/07 01:05:28;;;;;;;5.95;3.28;;;;;;;1.16;48.27;98018.47;5034682;28;20046;-79
2021/03/07 01:07:54;;;;;;;5.35;3.00;;;;;;;1.12;49.05;98010.31;5037026;28;20106;-78
2021/03/07 01:10:26;;;;;;;5.65;3.08;;;;;;;0.73;49.59;97995.59;5069551;28;20425;-78
2021/03/07 01:12:51;;;;;;;5.75;3.30;;;;;;;0.88;50.63;98006.00;5041786;28;20032;-78
2021/03/07 01:15:22;;;;;;;6.15;3.10;;;;;;;0.95;49.95;98003.59;5034831;28;20033;-78
2021/03/07 01:17:48;;;;;;;4.75;2.53;;;;;;;1.14;49.73;98002.44;5029562;28;20051;-78
2021/03/07 01:20:16;;;;;;;4.53;2.30;;;;;;;1.19;48.24;98001.97;5062852;28;20041;-78
2021/03/07 01:22:41;;;;;;;4.57;2.50;;;;;;;1.37;48.12;98004.31;5044899;28;20049;-78
2021/03/07 01:25:08;;;;;;;4.78;2.80;;;;;;;1.40;47.38;97996.28;5045114;28;20041;-78
2021/03/07 01:27:33;;;;;;;6.15;2.63;;;;;;;1.52;46.94;97984.69;5059304;28;20057;-78
2021/03/07 01:29:59;;;;;;;4.15;2.70;;;;;;;1.56;46.87;97987.72;5037319;28;20032;-78
2021/03/07 01:32:25;;;;;;;5.47;3.08;;;;;;;1.53;47.32;97983.75;5034263;28;20540;-78
2021/03/07 01:34:51;;;;;;;5.75;2.67;;;;;;;1.46;47.05;97973.34;5045576;28;20033;-78
2021/03/07 01:37:17;;;;;;;7.05;3.05;;;;;;;1.56;46.35;97978.28;5070691;28;20110;-78
2021/03/07 01:39:43;;;;;;;6.20;2.90;;;;;;;1.75;45.85;97968.56;5034874;28;20042;-78
2021/03/07 01:42:10;;;;;;;4.32;2.45;;;;;;;1.76;45.66;97965.81;5061289;28;20055;-78
2021/03/07 01:44:35;;;;;;;5.80;2.75;;;;;;;1.61;45.89;97972.63;5048503;28;20388;-78
2021/03/07 01:47:01;;;;;;;5.50;2.65;;;;;;;1.47;46.48;97959.56;5069565;28;20032;-78
2021/03/07 01:49:29;;;;;;;3.35;2.08;;;;;;;1.55;46.44;97963.84;5034144;28;20054;-78
2021/03/07 01:51:55;;;;;;;5.75;2.53;;;;;;;1.47;47.28;97953.59;5042527;28;20037;-78
2021/03/07 01:54:20;;;;;;;4.13;1.90;;;;;;;1.49;45.29;97951.66;5043063;28;20037;-78
2021/03/07 01:56:46;;;;;;;3.85;1.95;;;;;;;1.56;45.35;97944.91;5038092;28;20385;-78
2021/03/07 01:59:13;;;;;;;5.07;2.30;;;;;;;1.63;45.45;97942.47;5036624;28;20075;-78
2021/03/07 02:04:06;;;;;;;4.50;2.28;;;;;;;1.62;46.13;97931.41;4998378;28;20103;-77
2021/03/07 02:06:32;;;;;;;4.88;2.08;;;;;;;1.70;45.26;97928.00;4978791;28;20041;-77
2021/03/07 02:08:57;;;;;;;4.40;2.20;;;;;;;1.85;45.20;97928.06;4976599;28;20033;-77
2021/03/07 02:11:22;;;;;;;4.82;2.40;;;;;;;1.78;45.60;97929.72;4959533;28;20092;-77
2021/03/07 02:13:48;;;;;;;3.47;2.10;;;;;;;1.59;45.52;97921.47;4967598;28;20453;-77
2021/03/07 02:16:21;;;;;;;4.57;2.40;;;;;;;1.27;45.57;97912.97;4971861;28;20467;-77
2021/03/07 02:18:50;;;;;;;4.72;2.45;;;;;;;0.79;47.90;97914.72;4974829;28;20109;-77
2021/03/07 02:21:21;;;;;;;7.20;3.65;;;;;;;0.61;49.14;97919.22;5009912;28;20508;-77
2021/03/07 02:23:56;;;;;;;6.00;3.05;;;;;;;0.67;49.14;97921.09;4974757;28;20113;-77
2021/03/07 02:26:22;;;;;;;6.30;3.47;;;;;;;0.88;49.84;97908.59;4981787;28;20112;-77
2021/03/07 02:28:48;;;;;;;5.28;2.72;;;;;;;0.73;49.76;97910.22;4961564;28;20117;-77
2021/03/07 02:31:15;;;;;;;5.38;2.45;;;;;;;0.70;49.57;97902.84;4974931;28;20057;-77
2021/03/07 02:33:40;;;;;;;6.13;2.75;;;;;;;0.77;49.88;97903.78;4988358;28;20031;-77
2021/03/07 02:36:21;;;;;;;8.32;3.60;;;;;;;0.43;49.81;97899.69;4956951;28;20045;-77
2021/03/07 02:38:47;;;;;;;5.72;3.15;;;;;;;0.61;49.39;97899.50;4951459;28;20031;-76
2021/03/07 02:41:15;;;;;;;6.43;3.22;;;;;;;0.64;49.35;97900.94;4977549;28;20072;-77
2021/03/07 02:43:42;;;;;;;7.85;3.72;;;;;;;0.56;50.57;97899.97;4971052;28;20030;-76
2021/03/07 02:46:12;;;;;;;6.75;4.00;;;;;;;0.49;50.57;97896.47;4981150;28;20069;-76
2021/03/07 02:48:39;;;;;;;5.80;3.20;;;;;;;0.54;50.35;97896.78;4963145;28;20033;-77
2021/03/07 02:51:06;;;;;;;7.18;3.65;;;;;;;0.44;50.26;97891.03;4993872;28;20034;-76
2021/03/07 02:53:33;;;;;;;6.38;3.45;;;;;;;0.44;50.44;97880.78;4964754;28;20038;-77
2021/03/07 02:56:04;;;;;;;6.97;3.60;;;;;;;0.22;49.69;97881.44;4993934;28;20507;-76
2021/03/07 02:58:31;;;;;;;7.97;3.45;;;;;;;0.32;51.38;97879.53;4975009;28;20026;-77
2021/03/07 03:01:02;;;;;;;8.32;3.75;;;;;;;0.28;50.83;97883.38;4977691;28;20068;-76
2021/03/07 03:03:49;;;;;;;6.95;3.50;;;;;;;-0.10;51.78;97881.28;4961422;28;20041;-76
2021/03/07 03:06:16;;;;;;;7.35;3.53;;;;;;;0.20;51.33;97876.47;4977883;28;20046;-76
2021/03/07 03:08:46;;;;;;;6.15;3.60;;;;;;;0.12;51.17;97884.97;4976146;28;20061;-76
2021/03/07 03:11:12;;;;;;;6.88;3.35;;;;;;;0.10;51.08;97874.06;4967645;28;20046;-76
2021/03/07 03:13:38;;;;;;;6.88;3.78;;;;;;;0.04;51.56;97868.81;5007902;28;20504;-76
2021/03/07 03:16:05;;;;;;;7.70;3.58;;;;;;;0.03;51.76;97867.22;4964022;28;20569;-76
2021/03/07 03:18:32;;;;;;;5.25;3.15;;;;;;;0.05;50.57;97865.28;4977045;28;20030;-76
2021/03/07 03:20:59;;;;;;;4.93;3.17;;;;;;;0.04;51.20;97869.59;4977216;28;20121;-76
2021/03/07 03:23:25;;;;;;;5.50;2.90;;;;;;;0.13;51.45;97872.97;4960792;28;20053;-76
2021/03/07 03:25:51;;;;;;;4.57;2.67;;;;;;;0.10;50.71;97871.50;4973658;28;20053;-76
2021/03/07 03:28:18;;;;;;;6.70;3.42;;;;;;;0.10;50.85;97868.16;4970998;28;20030;-76
2021/03/07 03:30:44;;;;;;;5.55;2.60;;;;;;;0.11;50.38;97862.09;4976956;28;20030;-76
2021/03/07 03:33:09;;;;;;;6.82;2.65;;;;;;;0.15;50.61;97869.28;4954575;28;20542;-76
2021/03/07 03:35:35;;;;;;;4.97;2.63;;;;;;;0.21;50.69;97864.47;4977087;28;20029;-76
2021/03/07 03:38:01;;;;;;;5.32;2.60;;;;;;;0.27;50.50;97861.28;4976650;28;20018;-76
2021/03/07 03:40:28;;;;;;;6.30;2.40;;;;;;;0.20;50.96;97860.31;4959538;28;20164;-76
2021/03/07 03:43:01;;;;;;;5.72;2.85;;;;;;;0.08;50.85;97863.19;4976134;28;20037;-76
2021/03/07 03:45:28;;;;;;;4.20;2.40;;;;;;;0.18;50.83;97865.59;4981683;28;20033;-76
2021/03/07 03:47:57;;;;;;;8.95;3.08;;;;;;;-0.17;50.92;97864.16;4973925;28;20320;-76
2021/03/07 03:50:24;;;;;;;5.63;2.97;;;;;;;-0.12;51.42;97859.34;4972359;28;20393;-76
2021/03/07 03:52:50;;;;;;;5.15;3.20;;;;;;;-0.14;51.30;97856.16;4976938;28;20029;-76
2021/03/07 03:55:20;;;;;;;5.10;2.35;;;;;;;-0.20;50.99;97852.47;4959604;28;20484;-76
2021/03/07 03:57:48;;;;;;;6.43;2.72;;;;;;;-0.05;51.40;97855.22;4973973;28;20034;-76
2021/03/07 04:00:16;;;;;;;5.47;2.70;;;;;;;-0.12;51.41;97859.34;4966225;28;20042;-76
2021/03/07 04:02:42;;;;;;;6.28;2.60;;;;;;;-0.09;51.73;97856.47;4955713;28;20065;-76
2021/03/07 04:05:12;;;;;;;4.95;2.45;;;;;;;-0.13;52.10;97858.56;4991031;28;20046;-76
2021/03/07 04:07:38;;;;;;;5.40;2.78;;;;;;;-0.15;51.89;97862.25;4975214;28;20504;-76
2021/03/07 04:10:05;;;;;;;4.30;2.10;;;;;;;-0.17;50.88;97854.72;4951882;28;20368;-76
2021/03/07 04:12:31;;;;;;;5.50;2.72;;;;;;;-0.07;51.44;97864.78;4977252;28;20056;-76
2021/03/07 04:14:58;;;;;;;5.85;3.28;;;;;;;-0.12;52.33;97859.34;4982729;28;20026;-76
2021/03/07 04:17:25;;;;;;;6.25;3.30;;;;;;;-0.20;51.61;97858.38;4992217;28;20037;-76
2021/03/07 04:19:52;;;;;;;5.90;2.65;;;;;;;-0.17;52.39;97856.47;4974586;28;20044;-76
2021/03/07 04:22:18;;;;;;;5.43;2.60;;;;;;;-0.22;52.19;97870.56;4980473;28;20034;-76
2021/03/07 04:24:44;;;;;;;5.88;2.45;;;;;;;-0.19;52.78;97866.84;4970428;28;20034;-76
2021/03/07 04:27:09;;;;;;;5.03;2.72;;;;;;;-0.34;52.62;97851.34;4985976;28;20040;-76
2021/03/07 04:29:36;;;;;;;6.50;2.95;;;;;;;-0.43;52.59;97860.78;4976397;28;20032;-76
2021/03/07 04:32:02;;;;;;;7.05;3.55;;;;;;;-0.41;52.49;97863.16;4967222;28;20042;-76
2021/03/07 04:34:28;;;;;;;6.00;2.55;;;;;;;-0.53;53.02;97872.91;4976072;28;20030;-76
2021/03/07 04:36:54;;;;;;;4.90;2.92;;;;;;;-0.62;53.59;97869.53;4948447;28;20117;-76
2021/03/07 04:39:20;;;;;;;5.53;2.92;;;;;;;-0.57;52.89;97874.97;4956809;28;20377;-76
2021/03/07 04:41:45;;;;;;;4.90;3.28;;;;;;;-0.59;53.73;97873.50;4976102;28;20439;-76
2021/03/07 04:44:11;;;;;;;4.93;2.55;;;;;;;-0.54;53.00;97876.41;4976221;28;20100;-76
2021/03/07 04:46:36;;;;;;;7.53;3.13;;;;;;;-0.67;52.94;97869.19;4981873;28;20043;-76
2021/03/07 04:49:02;;;;;;;6.78;3.22;;;;;;;-0.69;53.89;97871.06;4957355;28;20023;-76
2021/03/07 04:51:28;;;;;;;7.05;3.40;;;;;;;-0.70;54.49;97882.28;4974634;28;20057;-76
2021/03/07 04:53:54;;;;;;;5.68;2.92;;;;;;;-0.81;54.03;97874.88;4991906;28;20029;-76
2021/03/07 04:56:19;;;;;;;6.00;3.30;;;;;;;-0.72;54.40;97883.38;5005319;28;20066;-76
2021/03/07 04:58:45;;;;;;;5.70;3.08;;;;;;;-0.65;53.33;97881.78;4973047;28;20461;-76
2021/03/07 05:01:10;;;;;;;5.30;3.03;;;;;;;-0.70;53.58;97874.59;4976220;28;20026;-76
2021/03/07 05:03:35;;;;;;;5.35;3.47;;;;;;;-0.71;53.87;97873.00;4975827;28;20512;-76
2021/03/07 05:06:02;;;;;;;7.93;3.25;;;;;;;-0.72;53.31;97868.84;4992443;28;20393;-76
2021/03/07 05:08:29;;;;;;;5.97;3.38;;;;;;;-0.70;52.66;97866.94;4976116;28;20022;-76
2021/03/07 05:10:55;;;;;;;8.75;3.70;;;;;;;-0.64;53.72;97865.50;4976394;28;20084;-76
2021/03/07 05:13:21;;;;;;;8.40;3.42;;;;;;;-0.60;53.40;97862.50;4996537;28;20125;-76
2021/03/07 05:15:46;;;;;;;6.30;3.30;;;;;;;-0.51;53.21;97870.97;4989998;28;20038;-76
2021/03/07 05:18:12;;;;;;;6.13;2.97;;;;;;;-0.53;52.82;97859.28;4985754;28;20044;-76
2021/03/07 05:20:37;;;;;;;7.50;3.80;;;;;;;-0.49;52.53;97863.16;4959760;28;20057;-76
2021/03/07 05:23:06;;;;;;;7.25;3.08;;;;;;;-0.52;52.50;97855.78;4975416;28;20033;-76
2021/03/07 05:25:31;;;;;;;7.40;3.13;;;;;;;-0.53;53.23;97860.09;4960306;28;20044;-76
2021/03/07 05:27:57;;;;;;;7.30;2.70;;;;;;;-0.55;53.05;97859.44;4959762;28;20022;-76
2021/03/07 05:30:23;;;;;;;6.43;3.22;;;;;;;-0.48;52.95;97849.38;4975459;28;20042;-76
2021/03/07 05:32:48;;;;;;;6.25;2.90;;;;;;;-0.41;53.41;97860.63;4999079;28;20037;-76
2021/03/07 05:35:16;;;;;;;5.85;3.53;;;;;;;-0.47;53.22;97851.78;4976591;28;20708;-76
2021/03/07 05:37:42;;;;;;;6.13;2.78;;;;;;;-0.48;53.57;97852.75;4993259;28;20038;-76
2021/03/07 05:40:07;;;;;;;8.82;3.60;;;;;;;-0.54;52.68;97850.03;5013390;28;20045;-76
2021/03/07 05:42:33;;;;;;;7.10;3.40;;;;;;;-0.59;52.86;97851.28;4995460;28;20461;-76
2021/03/07 05:44:59;;;;;;;7.72;4.03;;;;;;;-0.68;53.62;97848.88;4979012;28;20069;-76
2021/03/07 05:47:26;;;;;;;6.80;4.00;;;;;;;-0.66;53.75;97845.19;4979393;28;20038;-76
2021/03/07 05:49:52;;;;;;;6.95;3.65;;;;;;;-0.67;53.31;97843.63;5011695;28;20032;-76
2021/03/07 05:52:24;;;;;;;8.88;4.72;;;;;;;-0.80;53.04;97851.72;4979077;28;20038;-76
2021/03/07 05:54:51;;;;;;;7.45;4.35;;;;;;;-0.58;53.01;97845.22;4977951;28;20682;-76
2021/03/07 05:57:20;;;;;;;7.25;3.95;;;;;;;-0.70;52.90;97843.09;4973520;28;20038;-76
2021/03/07 05:59:46;;;;;;;5.65;3.47;;;;;;;-0.52;52.98;97840.44;4977313;28;20053;-76
2021/03/07 06:02:15;;;;;;;6.32;3.47;;;;;;;-0.62;51.95;97843.94;4976394;28;20100;-76
2021/03/07 06:04:42;;;;;;;12.05;5.20;;;;;;;-0.52;52.29;97836.13;4994604;28;20038;-76
2021/03/07 06:07:08;;;;;;;8.30;4.45;;;;;;;-0.44;52.16;97833.56;4977914;28;20116;-76
2021/03/07 06:09:34;;;;;;;6.18;3.60;;;;;;;-0.45;52.47;97843.97;4994025;28;20065;-76
2021/03/07 06:12:01;;;;;;;6.20;3.50;;;;;;;-0.49;52.02;97842.69;4978102;28;20068;-76
2021/03/07 06:14:32;;;;;;;6.43;3.47;;;;;;;-0.67;52.66;97846.16;4978654;28;20674;-76
2021/03/07 06:17:08;;;;;;;7.25;3.60;;;;;;;-0.44;52.56;97845.56;4978009;28;20388;-76
2021/03/07 06:19:54;;;;;;;;;;;;;;;-1.04;53.81;97839.66;4978793;28;20037;-76
2021/03/07 06:22:19;;;;;;;6.47;3.40;;;;;;;-0.57;53.39;97836.59;4985487;28;19997;-76
2021/03/07 06:24:44;;;;;;;10.30;4.47;;;;;;;-0.55;52.48;97835.63;4979515;28;20105;-76
2021/03/07 06:27:12;;;;;;;7.18;3.95;;;;;;;-0.60;52.67;97848.88;4994906;28;20068;-76
2021/03/07 06:29:57;;;;;;;8.10;3.75;;;;;;;-0.59;53.21;97843.59;4980941;28;20469;-76
2021/03/07 06:32:24;;;;;;;5.10;3.20;;;;;;;-0.42;52.66;97841.09;4978128;28;21002;-76
2021/03/07 06:34:49;;;;;;;7.22;3.72;;;;;;;-0.29;52.61;97836.31;4994969;28;20041;-77
2021/03/07 06:37:15;;;;;;;8.57;3.53;;;;;;;-0.20;52.67;97829.44;4962792;28;20037;-76
2021/03/07 06:39:41;;;;;;;6.78;3.47;;;;;;;-0.10;52.95;97832.66;4962691;28;20021;-77
2021/03/07 06:42:08;;;;;;;6.55;3.65;;;;;;;0.00;52.19;97832.50;4994888;28;20068;-77
2021/03/07 06:44:36;;;;;;;9.48;3.67;;;;;;;-0.03;52.01;97832.81;4978828;28;20038;-77
2021/03/07 06:47:12;;;;;;;6.85;4.13;;;;;;;-0.08;51.65;97827.38;4977733;28;20036;-77
2021/03/07 06:49:39;;;;;;;8.30;3.45;;;;;;;0.19;51.02;97826.25;4959550;28;20060;-77
2021/03/07 06:52:18;;;;;;;6.05;3.25;;;;;;;-0.09;50.17;97825.75;5001656;28;20037;-77
2021/03/07 06:55:11;;;;;;;6.30;3.20;;;;;;;-0.16;51.05;97828.16;4944232;28;20389;-77
2021/03/07 06:57:37;;;;;;;5.68;3.65;;;;;;;0.30;50.22;97822.53;4972044;28;20038;-77
2021/03/07 07:00:06;;;;;;;7.15;3.30;;;;;;;0.35;49.54;97815.97;4995566;28;20062;-77
2021/03/07 07:02:32;;;;;;;5.43;2.90;;;;;;;0.46;50.06;97827.63;4977911;28;20107;-77
2021/03/07 07:04:57;;;;;;;6.25;3.00;;;;;;;0.63;49.31;97814.78;4986283;28;20401;-77
2021/03/07 07:07:23;;;;;;;6.05;2.95;;;;;;;0.74;48.60;97827.25;4984729;28;20043;-77
2021/03/07 07:10:00;;;;;;;6.45;3.10;;;;;;;0.59;48.13;97821.22;4989454;28;20092;-77
2021/03/07 07:12:27;;;;;;;5.65;2.92;;;;;;;0.95;48.23;97823.34;4949155;28;20035;-77
2021/03/07 07:15:13;;;;;;;6.00;3.35;;;;;;;0.81;48.71;97825.63;4959971;28;20030;-77
2021/03/07 07:17:39;;;;;;;5.97;3.17;;;;;;;1.11;48.38;97820.69;4989449;28;20428;-77
2021/03/07 07:20:06;;;;;;;5.30;2.85;;;;;;;1.31;46.89;97821.84;4995162;28;20042;-77
2021/03/07 07:22:32;;;;;;;7.38;2.83;;;;;;;1.47;47.05;97822.72;4978012;28;20029;-77
2021/03/07 07:24:59;;;;;;;7.10;3.22;;;;;;;1.61;46.25;97819.44;4978325;28;20036;-77
2021/03/07 07:27:25;;;;;;;7.60;3.33;;;;;;;1.92;46.14;97828.84;4978580;28;20044;-77
2021/03/07 07:29:50;;;;;;;4.60;2.65;;;;;;;2.06;46.13;97825.50;4978463;28;20026;-77
2021/03/07 07:32:40;;;;;;;4.88;3.08;;;;;;;2.15;45.58;97828.03;4961659;28;20117;-77
2021/03/07 07:35:29;;;;;;;6.38;2.92;;;;;;;2.17;44.51;97831.22;4999620;28;20044;-77
2021/03/07 07:38:04;;;;;;;5.95;2.75;;;;;;;2.22;44.61;97828.91;5011607;28;20563;-77
2021/03/07 07:40:37;;;;;;;5.55;3.20;;;;;;;2.39;45.08;97830.34;4976028;28;20025;-77
2021/03/07 07:43:02;;;;;;;6.40;2.85;;;;;;;2.46;44.85;97824.53;4971545;28;20492;-77
2021/03/07 07:45:28;;;;;;;6.72;3.10;;;;;;;2.61;44.46;97822.75;4993817;28;20034;-77
2021/03/07 07:47:56;;;;;;;4.35;2.97;;;;;;;2.74;44.38;97820.38;4976444;28;20033;-77
2021/03/07 07:50:31;;;;;;;7.03;3.28;;;;;;;2.52;44.14;97823.81;4970411;28;20029;-77
2021/03/07 07:53:08;;;;;;;7.25;4.03;;;;;;;2.85;43.48;97828.63;5004640;28;20165;-77
2021/03/07 07:55:50;;;;;;;6.55;4.22;;;;;;;2.91;43.26;97818.38;4995245;28;20068;-77
2021/03/07 07:58:38;;;;;;;7.35;3.50;;;;;;;3.20;42.47;97829.63;4981427;28;20524;-77
2021/03/07 08:01:12;;;;;;;12.75;6.45;;;;;;;3.56;42.48;97827.06;4991053;28;20156;-77
2021/03/07 08:03:39;;;;;;;9.00;4.40;;;;;;;3.78;41.64;97828.81;4985874;28;20152;-77
2021/03/07 08:06:07;;;;;;;6.85;4.15;;;;;;;3.82;40.89;97832.63;4954681;28;20053;-77
2021/03/07 08:08:38;;;;;;;5.68;3.80;;;;;;;3.64;41.00;97825.34;4972641;28;20029;-77
2021/03/07 08:11:28;;;;;;;5.68;4.13;;;;;;;4.10;41.09;97827.53;4979105;28;20042;-77
2021/03/07 08:13:55;;;;;;;6.78;3.63;;;;;;;4.02;40.98;97814.75;4985226;28;20049;-77
2021/03/07 08:16:40;;;;;;;4.50;3.28;;;;;;;3.80;40.90;97824.28;4958529;28;20461;-78
2021/03/07 08:19:08;;;;;;;6.30;3.25;;;;;;;4.13;39.72;97820.22;4974765;28;20022;-77
2021/03/07 08:21:59;;;;;;;4.53;2.90;;;;;;;3.96;39.92;97816.31;4961430;28;20031;-77
2021/03/07 08:24:46;;;;;;;6.40;3.10;;;;;;;4.31;40.04;97811.22;4963137;28;20141;-78
2021/03/07 08:27:30;;;;;;;5.00;3.00;;;;;;;4.33;39.93;97811.81;4960479;28;20037;-78
2021/03/07 08:30:01;;;;;;;5.97;2.80;;;;;;;4.58;39.07;97812.16;4974648;28;20070;-78
2021/03/07 08:32:46;;;;;;;4.03;2.70;;;;;;;4.85;39.18;97809.75;4978988;28;20034;-78
2021/03/07 08:35:11;;;;;;;7.03;3.42;;;;;;;4.98;38.76;97809.78;4963136;28;20040;-78
2021/03/07 08:37:37;;;;;;;5.22;3.00;;;;;;;5.30;38.24;97802.34;4995006;28;20042;-78
2021/03/07 08:40:31;;;;;;;5.13;3.20;;;;;;;5.24;38.98;97806.50;4995253;28;20045;-78
2021/03/07 08:42:58;;;;;;;4.63;3.45;;;;;;;5.51;38.18;97801.41;4999520;28;20412;-78
2021/03/07 08:45:25;;;;;;;5.05;3.10;;;;;;;5.52;37.33;97795.25;4978846;28;20041;-78
2021/03/07 08:47:55;;;;;;;4.35;3.03;;;;;;;5.67;37.89;97802.03;4963047;28;20030;-78
2021/03/07 08:50:22;;;;;;;6.45;4.47;;;;;;;6.22;37.46;97794.09;4978837;28;20040;-78
2021/03/07 08:52:48;;;;;;;5.88;3.33;;;;;;;6.24;37.53;97805.84;4976718;28;20026;-78
2021/03/07 08:55:13;;;;;;;6.78;3.58;;;;;;;6.18;36.54;97788.53;5001986;28;20087;-78
2021/03/07 08:57:47;;;;;;;5.45;3.38;;;;;;;5.99;37.10;97787.56;4959972;28;20056;-78
2021/03/07 09:00:16;;;;;;;4.72;2.90;;;;;;;6.49;35.95;97785.31;5008724;28;20018;-78
2021/03/07 09:02:42;;;;;;;5.00;3.08;;;;;;;5.91;37.64;97778.19;4999685;28;20042;-78
2021/03/07 09:05:25;;;;;;;4.80;2.88;;;;;;;6.43;36.78;97780.94;4978027;28;20049;-78
2021/03/07 09:07:59;;;;;;;5.05;3.22;;;;;;;6.07;36.60;97774.44;4960015;28;20050;-78
2021/03/07 09:10:39;;;;;;;6.93;4.18;;;;;;;6.14;37.72;97770.06;4965826;28;20476;-78
2021/03/07 09:13:18;;;;;;;6.65;3.85;;;;;;;6.69;36.29;97768.94;4971753;28;20034;-78
2021/03/07 09:15:53;;;;;;;6.25;3.80;;;;;;;7.03;36.37;97778.16;4977845;28;20038;-79
2021/03/07 09:18:20;;;;;;;6.57;3.70;;;;;;;7.36;35.85;97776.41;4967951;28;20030;-78
2021/03/07 09:20:55;;;;;;;6.68;3.65;;;;;;;7.47;35.87;97768.78;4991490;28;20108;-78
2021/03/07 09:23:36;;;;;;;11.38;4.88;;;;;;;6.93;36.85;97767.47;4966777;28;20030;-78
2021/03/07 09:26:08;;;;;;;7.35;4.20;;;;;;;6.99;36.40;97773.59;4983359;28;20034;-78
2021/03/07 09:28:56;;;;;;;6.68;3.92;;;;;;;7.49;36.90;97763.38;4999175;28;20484;-78
2021/03/07 09:31:33;;;;;;;6.70;3.45;;;;;;;7.16;36.26;97769.53;4993875;28;20079;-78
2021/03/07 09:34:00;;;;;;;5.45;3.78;;;;;;;7.82;36.09;97765.72;5013600;28;20031;-78
2021/03/07 09:36:26;;;;;;;5.40;3.40;;;;;;;7.63;35.90;97764.88;4969954;28;20045;-78
2021/03/07 09:38:55;;;;;;;5.80;3.50;;;;;;;7.39;35.46;97763.03;4998929;28;20037;-78
2021/03/07 09:41:44;;;;;;;5.30;3.60;;;;;;;7.48;35.88;97756.59;4966225;28;20026;-78
2021/03/07 09:44:12;;;;;;;5.70;3.25;;;;;;;7.66;35.89;97761.84;4982317;28;20080;-78
2021/03/07 09:46:42;;;;;;;5.60;3.83;;;;;;;7.86;35.63;97763.50;4991337;28;20037;-78
2021/03/07 09:49:08;;;;;;;5.90;3.53;;;;;;;7.96;34.63;97752.66;4997815;28;20052;-78
2021/03/07 09:51:36;;;;;;;6.05;4.03;;;;;;;7.96;35.12;97747.47;4965701;28;20496;-78
2021/03/07 09:54:03;;;;;;;5.25;3.35;;;;;;;8.07;35.06;97759.72;4978897;28;20049;-76
2021/03/07 09:56:30;;;;;;;6.45;3.67;;;;;;;8.04;35.14;97749.78;4976215;28;20476;-76
2021/03/07 09:59:08;;;;;;;4.68;3.15;;;;;;;7.54;35.00;97745.41;4959877;28;20026;-76
2021/03/07 10:01:50;;;;;;;5.03;3.10;;;;;;;7.94;34.67;97747.69;4994858;28;20038;-76
2021/03/07 10:04:24;;;;;;;5.93;3.40;;;;;;;7.89;34.86;97752.72;5000391;28;20064;-76
2021/03/07 10:06:50;;;;;;;4.78;3.58;;;;;;;8.52;34.58;97745.75;5011670;28;20044;-76
2021/03/07 10:09:15;;;;;;;5.03;3.78;;;;;;;8.99;34.26;97748.59;4953157;28;20476;-76
2021/03/07 10:11:54;;;;;;;5.28;3.47;;;;;;;8.39;33.67;97750.03;4967700;28;20034;-76
2021/03/07 10:14:24;;;;;;;5.22;3.55;;;;;;;8.73;33.60;97747.91;4972890;28;20028;-76
2021/03/07 10:16:51;;;;;;;5.28;3.72;;;;;;;8.98;33.38;97739.22;4995647;28;20465;-76
2021/03/07 10:19:16;;;;;;;5.70;3.83;;;;;;;8.70;33.86;97743.13;4975743;28;20154;-77
2021/03/07 10:21:44;;;;;;;6.25;3.40;;;;;;;9.37;33.51;97727.50;4948032;28;20089;-76
2021/03/07 10:24:18;;;;;;;5.05;3.30;;;;;;;9.86;32.33;97735.13;4974568;28;20027;-76
2021/03/07 10:26:46;;;;;;;9.75;5.68;;;;;;;9.92;32.09;97734.22;4961636;28;20061;-76
2021/03/07 10:29:39;;;;;;;7.50;4.68;;;;;;;9.48;31.82;97738.91;4961365;28;20033;-76
2021/03/07 10:32:05;;;;;;;5.38;3.95;;;;;;;10.48;31.13;97736.47;4970971;28;20389;-77
2021/03/07 10:34:41;;;;;;;4.93;4.05;;;;;;;10.19;30.90;97730.38;4988703;28;20040;-76
2021/03/07 10:37:08;;;;;;;5.53;4.05;;;;;;;10.33;32.25;97738.75;4978442;28;20030;-76
2021/03/07 10:39:34;;;;;;;4.50;3.42;;;;;;;10.39;32.19;97738.63;4962754;28;20393;-77
2021/03/07 10:42:11;;;;;;;5.57;3.78;;;;;;;10.18;32.05;97733.97;4995984;28;20038;-76
2021/03/07 10:44:40;;;;;;;5.57;3.97;;;;;;;10.59;31.58;97724.44;4991439;28;20105;-76
2021/03/07 10:47:23;;;;;;;6.22;3.80;;;;;;;9.73;32.28;97717.13;4971498;28;20030;-76
2021/03/07 10:49:49;;;;;;;7.28;4.60;;;;;;;10.43;32.46;97728.56;4976357;28;20026;-76
2021/03/07 10:52:16;;;;;;;5.75;3.80;;;;;;;11.42;30.61;97719.69;4972529;28;20041;-76
2021/03/07 10:54:42;;;;;;;6.22;3.60;;;;;;;11.43;29.72;97714.25;5004135;28;20034;-76
2021/03/07 10:57:12;;;;;;;6.70;4.25;;;;;;;10.64;31.13;97716.72;4983681;28;20037;-76
2021/03/07 10:59:38;;;;;;;6.25;4.25;;;;;;;11.17;31.11;97717.44;4993257;28;20032;-76
2021/03/07 11:02:05;;;;;;;5.40;3.95;;;;;;;10.71;30.77;97712.22;4975725;28;20200;-76
2021/03/07 11:04:31;;;;;;;7.43;4.35;;;;;;;11.10;31.07;97701.16;4961535;28;20037;-77
2021/03/07 11:06:56;;;;;;;6.00;4.22;;;;;;;11.31;31.11;97699.69;4961508;28;20038;-76
2021/03/07 11:09:21;;;;;;;6.07;4.13;;;;;;;11.52;30.66;97698.22;4960822;28;20420;-76
2021/03/07 11:11:48;;;;;;;5.60;3.60;;;;;;;11.68;29.85;97696.63;4957309;28;20046;-76
2021/03/07 11:14:13;;;;;;;5.72;4.00;;;;;;;12.42;28.75;97696.31;4953985;28;20489;-76
2021/03/07 11:16:39;;;;;;;6.00;4.10;;;;;;;13.30;26.98;97698.81;4976558;28;20053;-76
2021/03/07 11:19:04;;;;;;;6.60;4.05;;;;;;;12.91;28.36;97688.50;4966499;28;20026;-76
2021/03/07 11:21:29;;;;;;;7.82;4.00;;;;;;;13.11;28.47;97692.38;4993055;28;20106;-76
2021/03/07 11:23:55;;;;;;;5.55;4.40;;;;;;;13.40;27.04;97686.88;4993045;28;20037;-76
2021/03/07 11:26:20;;;;;;;5.97;4.60;;;;;;;13.68;27.19;97677.94;4976894;28;20053;-76
2021/03/07 11:28:45;;;;;;;6.07;4.53;;;;;;;13.36;27.89;97677.97;4974623;28;20026;-76
2021/03/07 11:31:11;;;;;;;5.78;4.10;;;;;;;14.10;27.43;97681.59;4991877;28;20440;-76
2021/03/07 11:33:36;;;;;;;5.20;3.90;;;;;;;14.90;25.22;97669.03;4964041;28;20026;-76
2021/03/07 11:36:02;;;;;;;6.38;4.47;;;;;;;14.99;25.31;97669.31;4961876;28;20042;-76
2021/03/07 11:38:29;;;;;;;5.78;4.38;;;;;;;13.48;26.45;97673.34;4977096;28;20069;-77
2021/03/07 11:40:54;;;;;;;8.60;5.18;;;;;;;13.21;26.88;97666.31;4991809;28;20471;-77
2021/03/07 11:43:20;;;;;;;5.15;4.13;;;;;;;14.46;25.94;97652.91;4972752;28;20040;-76
2021/03/07 11:45:45;;;;;;;6.28;4.55;;;;;;;15.48;24.08;97653.06;4957627;28;20034;-77
2021/03/07 11:48:10;;;;;;;5.32;4.32;;;;;;;15.18;24.52;97648.59;4988584;28;20040;-77
2021/03/07 11:50:36;;;;;;;6.60;4.47;;;;;;;15.55;24.10;97647.56;4968708;28;20037;-77